Erzurum Havaalani, Turkey

5:22 PM +03 on July 24, 2017 (GMT +0300)
Erzurum | | Change Station

Elev 5768 ft 39.95 °N, 41.17 °E | Updated 14 minutes ago

Thunderstorm
Thunderstorm
70 °F
Feels Like 70 °F
N
9
Wind Variable Wind from SSE

Today
High -- | Low -- °F
--% Chance of Precip.
Yesterday
High -- | Low -- °F
Precip. -- in
Pressure 29.89 in
Visibility 6.2 miles
Clouds Few 2500 ft
Mostly Cloudy 3000 ft
Dew Point 52 °F
Humidity 53%
Rainfall 0.00 in
Snow Depth Not available.
5:06 AM 7:36 PM
New Moon, 2% visible
SPECI LTCE 241408Z 15008KT 9999 -TSRA FEW025CB BKN030 21/11 Q1012 BECMG TL1420 NSW TEMPO FM1430 -TSRA RMK RWY08R 15007KT 130V190 RWY26R 15010KT RWY08L 16004KT 120V200
Pressure 29.89 in
Visibility 6.2 miles
Clouds Few 2500 ft
Mostly Cloudy 3000 ft
Dew Point 52 °F
Humidity 53%
Rainfall 0.00 in
Snow Depth Not available.
5:06 AM 7:36 PM
New Moon, 2% visible
SPECI LTCE 241408Z 15008KT 9999 -TSRA FEW025CB BKN030 21/11 Q1012 BECMG TL1420 NSW TEMPO FM1430 -TSRA RMK RWY08R 15007KT 130V190 RWY26R 15010KT RWY08L 16004KT 120V200

Get Severe Weather Alerts

Thanks for signing up!

Be on the lookout for a verification email in your inbox.

You'll start receiving the daily forecast at 6 AM.

×

10-Day Weather Forecast

×

Almanac

Astronomy

Jul. 24, 2017 Rise Set
Actual Time
Civil Twilight
Nautical Twilight
Astronomical Twilight
Moon
Length of Visible Light
Length of Day
Tomorrow will be .
, % of the Moon is Illuminated

Today's Extremes

Country Highs Country Lows

Community

WunderPhotos

Category 6

Welcome to Category 6. This is the collective home for Weather Underground's featured writeups by Dr. Jeff Masters (right), Bob Henson (left), Chris Burt, and other regular contributors.

Nearby

Air Quality

  Air Quality AQ Index Pollutant
Not available.

Snow Depth

Station Depth Elevation

Earthquake Activity

City Distance Mag. Time & Date
Minimum magnitude displayed is 2.5.

Coastal Water Temperatures

Place Temperature

Stations

Nearby Weather Stations

Station Location Temp. Windchill Dew Point Humidity Wind Precip. Elev Updated Type